sensor_id;sensor_type;location;lat;lon;timestamp;P1;durP1;ratioP1;P2;durP2;ratioP2
64799;SDS011;51233;51.982;4.594;2023-04-24T00:01:30;1.27;;;0.87;;
64799;SDS011;51233;51.982;4.594;2023-04-24T00:04:31;1.50;;;0.90;;
64799;SDS011;51233;51.982;4.594;2023-04-24T00:07:31;1.33;;;0.90;;
64799;SDS011;51233;51.982;4.594;2023-04-24T00:10:32;1.10;;;0.73;;
64799;SDS011;51233;51.982;4.594;2023-04-24T00:13:32;0.80;;;0.80;;
64799;SDS011;51233;51.982;4.594;2023-04-24T00:16:38;4.25;;;1.05;;
64799;SDS011;51233;51.982;4.594;2023-04-24T00:19:38;1.65;;;0.80;;
64799;SDS011;51233;51.982;4.594;2023-04-24T00:22:38;2.72;;;1.00;;
64799;SDS011;51233;51.982;4.594;2023-04-24T00:25:39;0.63;;;0.63;;
64799;SDS011;51233;51.982;4.594;2023-04-24T00:28:39;3.10;;;1.20;;
64799;SDS011;51233;51.982;4.594;2023-04-24T00:31:40;1.17;;;0.90;;
64799;SDS011;51233;51.982;4.594;2023-04-24T00:34:40;0.98;;;0.90;;
64799;SDS011;51233;51.982;4.594;2023-04-24T00:37:40;0.60;;;0.60;;
64799;SDS011;51233;51.982;4.594;2023-04-24T00:40:41;0.57;;;0.57;;
64799;SDS011;51233;51.982;4.594;2023-04-24T00:43:41;0.63;;;0.60;;
64799;SDS011;51233;51.982;4.594;2023-04-24T00:46:41;1.43;;;0.87;;
64799;SDS011;51233;51.982;4.594;2023-04-24T00:49:42;1.07;;;0.70;;
64799;SDS011;51233;51.982;4.594;2023-04-24T00:52:42;1.17;;;0.70;;
64799;SDS011;51233;51.982;4.594;2023-04-24T00:55:42;1.35;;;0.80;;
64799;SDS011;51233;51.982;4.594;2023-04-24T00:58:42;1.10;;;0.87;;
64799;SDS011;51233;51.982;4.594;2023-04-24T01:01:46;2.25;;;0.93;;
64799;SDS011;51233;51.982;4.594;2023-04-24T01:04:46;0.88;;;0.70;;
64799;SDS011;51233;51.982;4.594;2023-04-24T01:07:49;1.02;;;0.93;;
64799;SDS011;51233;51.982;4.594;2023-04-24T01:10:49;1.13;;;1.00;;
64799;SDS011;51233;51.982;4.594;2023-04-24T01:13:51;1.30;;;0.85;;
64799;SDS011;51233;51.982;4.594;2023-04-24T01:16:51;1.70;;;0.80;;
64799;SDS011;51233;51.982;4.594;2023-04-24T01:19:51;1.27;;;1.13;;
64799;SDS011;51233;51.982;4.594;2023-04-24T01:22:57;3.47;;;1.45;;
64799;SDS011;51233;51.982;4.594;2023-04-24T01:25:57;3.53;;;1.37;;
64799;SDS011;51233;51.982;4.594;2023-04-24T01:28:57;1.90;;;1.67;;
64799;SDS011;51233;51.982;4.594;2023-04-24T01:31:57;1.97;;;1.70;;
64799;SDS011;51233;51.982;4.594;2023-04-24T01:34:58;1.67;;;1.57;;
64799;SDS011;51233;51.982;4.594;2023-04-24T01:37:58;1.70;;;1.60;;
64799;SDS011;51233;51.982;4.594;2023-04-24T01:40:58;1.40;;;1.30;;
64799;SDS011;51233;51.982;4.594;2023-04-24T01:43:59;1.20;;;1.10;;
64799;SDS011;51233;51.982;4.594;2023-04-24T01:47:00;0.90;;;0.90;;
64799;SDS011;51233;51.982;4.594;2023-04-24T01:50:00;0.73;;;0.73;;
64799;SDS011;51233;51.982;4.594;2023-04-24T01:53:00;0.45;;;0.45;;
64799;SDS011;51233;51.982;4.594;2023-04-24T01:56:00;0.77;;;0.70;;
64799;SDS011;51233;51.982;4.594;2023-04-24T01:59:02;0.57;;;0.57;;
64799;SDS011;51233;51.982;4.594;2023-04-24T02:02:02;0.80;;;0.50;;
64799;SDS011;51233;51.982;4.594;2023-04-24T02:05:03;0.30;;;0.30;;
64799;SDS011;51233;51.982;4.594;2023-04-24T02:08:05;0.75;;;0.47;;
64799;SDS011;51233;51.982;4.594;2023-04-24T02:11:05;0.20;;;0.20;;
64799;SDS011;51233;51.982;4.594;2023-04-24T02:14:08;1.52;;;0.32;;
64799;SDS011;51233;51.982;4.594;2023-04-24T02:17:09;0.95;;;0.30;;
64799;SDS011;51233;51.982;4.594;2023-04-24T02:20:09;0.40;;;0.40;;
64799;SDS011;51233;51.982;4.594;2023-04-24T02:23:09;1.23;;;0.40;;
64799;SDS011;51233;51.982;4.594;2023-04-24T02:26:10;0.50;;;0.50;;
64799;SDS011;51233;51.982;4.594;2023-04-24T02:29:10;0.70;;;0.40;;
64799;SDS011;51233;51.982;4.594;2023-04-24T02:32:10;0.83;;;0.50;;
64799;SDS011;51233;51.982;4.594;2023-04-24T02:35:11;1.10;;;0.70;;
64799;SDS011;51233;51.982;4.594;2023-04-24T02:38:12;0.70;;;0.60;;
64799;SDS011;51233;51.982;4.594;2023-04-24T02:41:12;0.90;;;0.70;;
64799;SDS011;51233;51.982;4.594;2023-04-24T02:44:12;0.63;;;0.60;;
64799;SDS011;51233;51.982;4.594;2023-04-24T02:47:12;2.40;;;0.55;;
64799;SDS011;51233;51.982;4.594;2023-04-24T02:50:13;1.42;;;1.00;;
64799;SDS011;51233;51.982;4.594;2023-04-24T02:53:13;1.37;;;1.00;;
64799;SDS011;51233;51.982;4.594;2023-04-24T02:56:13;1.80;;;1.00;;
64799;SDS011;51233;51.982;4.594;2023-04-24T02:59:13;0.90;;;0.90;;
64799;SDS011;51233;51.982;4.594;2023-04-24T03:02:13;1.05;;;0.73;;
64799;SDS011;51233;51.982;4.594;2023-04-24T03:05:14;0.40;;;0.30;;
64799;SDS011;51233;51.982;4.594;2023-04-24T03:08:14;0.95;;;0.47;;
64799;SDS011;51233;51.982;4.594;2023-04-24T03:11:14;1.10;;;0.50;;
64799;SDS011;51233;51.982;4.594;2023-04-24T03:14:14;1.00;;;0.40;;
64799;SDS011;51233;51.982;4.594;2023-04-24T03:17:14;1.40;;;0.50;;
64799;SDS011;51233;51.982;4.594;2023-04-24T03:20:15;1.17;;;0.68;;
64799;SDS011;51233;51.982;4.594;2023-04-24T03:23:15;0.63;;;0.40;;
64799;SDS011;51233;51.982;4.594;2023-04-24T03:26:15;1.77;;;0.60;;
64799;SDS011;51233;51.982;4.594;2023-04-24T03:29:15;1.58;;;0.45;;
64799;SDS011;51233;51.982;4.594;2023-04-24T03:32:16;0.55;;;0.47;;
64799;SDS011;51233;51.982;4.594;2023-04-24T03:35:16;1.85;;;0.60;;
64799;SDS011;51233;51.982;4.594;2023-04-24T03:38:16;0.52;;;0.40;;
64799;SDS011;51233;51.982;4.594;2023-04-24T03:41:16;0.90;;;0.50;;
64799;SDS011;51233;51.982;4.594;2023-04-24T03:44:19;0.98;;;0.50;;
64799;SDS011;51233;51.982;4.594;2023-04-24T03:47:20;1.27;;;0.50;;
64799;SDS011;51233;51.982;4.594;2023-04-24T03:50:20;1.05;;;0.40;;
64799;SDS011;51233;51.982;4.594;2023-04-24T03:53:20;1.40;;;0.40;;
64799;SDS011;51233;51.982;4.594;2023-04-24T03:56:20;1.17;;;0.45;;
64799;SDS011;51233;51.982;4.594;2023-04-24T03:59:20;0.73;;;0.37;;
64799;SDS011;51233;51.982;4.594;2023-04-24T04:02:21;1.37;;;0.50;;
64799;SDS011;51233;51.982;4.594;2023-04-24T04:05:21;0.60;;;0.30;;
64799;SDS011;51233;51.982;4.594;2023-04-24T04:08:21;1.17;;;0.40;;
64799;SDS011;51233;51.982;4.594;2023-04-24T04:11:24;0.52;;;0.30;;
64799;SDS011;51233;51.982;4.594;2023-04-24T04:14:24;1.05;;;0.47;;
64799;SDS011;51233;51.982;4.594;2023-04-24T04:17:25;0.90;;;0.40;;
64799;SDS011;51233;51.982;4.594;2023-04-24T04:20:28;1.27;;;0.57;;
64799;SDS011;51233;51.982;4.594;2023-04-24T04:23:28;0.50;;;0.47;;
64799;SDS011;51233;51.982;4.594;2023-04-24T04:26:28;1.00;;;0.50;;
64799;SDS011;51233;51.982;4.594;2023-04-24T04:29:32;1.08;;;0.50;;
64799;SDS011;51233;51.982;4.594;2023-04-24T04:32:32;3.00;;;0.90;;
64799;SDS011;51233;51.982;4.594;2023-04-24T04:35:35;0.52;;;0.45;;
64799;SDS011;51233;51.982;4.594;2023-04-24T04:38:36;1.50;;;0.80;;
64799;SDS011;51233;51.982;4.594;2023-04-24T04:41:36;0.90;;;0.40;;
64799;SDS011;51233;51.982;4.594;2023-04-24T04:44:40;0.35;;;0.35;;
64799;SDS011;51233;51.982;4.594;2023-04-24T04:47:40;2.97;;;0.90;;
64799;SDS011;51233;51.982;4.594;2023-04-24T04:50:40;2.10;;;0.70;;
64799;SDS011;51233;51.982;4.594;2023-04-24T04:53:41;1.05;;;0.47;;
64799;SDS011;51233;51.982;4.594;2023-04-24T04:56:41;0.30;;;0.30;;
64799;SDS011;51233;51.982;4.594;2023-04-24T04:59:41;0.15;;;0.15;;
64799;SDS011;51233;51.982;4.594;2023-04-24T05:02:41;2.85;;;0.90;;
64799;SDS011;51233;51.982;4.594;2023-04-24T05:05:41;0.73;;;0.50;;
64799;SDS011;51233;51.982;4.594;2023-04-24T05:08:42;0.43;;;0.43;;
64799;SDS011;51233;51.982;4.594;2023-04-24T05:11:42;0.98;;;0.65;;
64799;SDS011;51233;51.982;4.594;2023-04-24T05:14:42;2.67;;;1.23;;
64799;SDS011;51233;51.982;4.594;2023-04-24T05:17:45;2.00;;;1.50;;
64799;SDS011;51233;51.982;4.594;2023-04-24T05:20:46;2.22;;;1.67;;
64799;SDS011;51233;51.982;4.594;2023-04-24T05:23:46;3.80;;;2.47;;
64799;SDS011;51233;51.982;4.594;2023-04-24T05:26:46;4.10;;;2.77;;
64799;SDS011;51233;51.982;4.594;2023-04-24T05:29:46;1.17;;;0.53;;
64799;SDS011;51233;51.982;4.594;2023-04-24T05:32:47;6.63;;;3.37;;
64799;SDS011;51233;51.982;4.594;2023-04-24T05:35:47;7.63;;;4.35;;
64799;SDS011;51233;51.982;4.594;2023-04-24T05:38:47;7.93;;;3.87;;
64799;SDS011;51233;51.982;4.594;2023-04-24T05:41:48;14.20;;;5.40;;
64799;SDS011;51233;51.982;4.594;2023-04-24T05:44:51;7.70;;;3.63;;
64799;SDS011;51233;51.982;4.594;2023-04-24T05:47:51;10.02;;;4.30;;
64799;SDS011;51233;51.982;4.594;2023-04-24T05:50:52;0.73;;;0.73;;
64799;SDS011;51233;51.982;4.594;2023-04-24T05:53:52;6.78;;;3.08;;
64799;SDS011;51233;51.982;4.594;2023-04-24T05:56:52;6.70;;;3.07;;
64799;SDS011;51233;51.982;4.594;2023-04-24T05:59:54;3.40;;;1.98;;
64799;SDS011;51233;51.982;4.594;2023-04-24T06:02:54;4.10;;;2.73;;
64799;SDS011;51233;51.982;4.594;2023-04-24T06:05:55;7.05;;;2.25;;
64799;SDS011;51233;51.982;4.594;2023-04-24T06:08:58;5.53;;;2.97;;
64799;SDS011;51233;51.982;4.594;2023-04-24T06:11:58;4.33;;;2.53;;
64799;SDS011;51233;51.982;4.594;2023-04-24T06:14:59;4.47;;;2.15;;
64799;SDS011;51233;51.982;4.594;2023-04-24T06:18:00;11.20;;;3.57;;
64799;SDS011;51233;51.982;4.594;2023-04-24T06:21:00;6.38;;;1.85;;
64799;SDS011;51233;51.982;4.594;2023-04-24T06:24:00;13.57;;;3.27;;
64799;SDS011;51233;51.982;4.594;2023-04-24T06:27:01;5.70;;;2.10;;
64799;SDS011;51233;51.982;4.594;2023-04-24T06:30:01;8.30;;;1.77;;
64799;SDS011;51233;51.982;4.594;2023-04-24T06:33:04;7.07;;;2.20;;
64799;SDS011;51233;51.982;4.594;2023-04-24T06:36:04;6.55;;;1.85;;
64799;SDS011;51233;51.982;4.594;2023-04-24T06:39:05;6.43;;;2.53;;
64799;SDS011;51233;51.982;4.594;2023-04-24T06:42:08;6.35;;;2.13;;
64799;SDS011;51233;51.982;4.594;2023-04-24T06:45:09;9.80;;;2.97;;
64799;SDS011;51233;51.982;4.594;2023-04-24T06:48:09;5.90;;;1.70;;
64799;SDS011;51233;51.982;4.594;2023-04-24T06:51:10;5.00;;;1.75;;
64799;SDS011;51233;51.982;4.594;2023-04-24T06:54:10;7.77;;;1.87;;
64799;SDS011;51233;51.982;4.594;2023-04-24T06:57:10;4.53;;;1.88;;
64799;SDS011;51233;51.982;4.594;2023-04-24T07:00:10;0.22;;;0.22;;
64799;SDS011;51233;51.982;4.594;2023-04-24T07:03:11;2.38;;;1.02;;
64799;SDS011;51233;51.982;4.594;2023-04-24T07:06:11;8.95;;;1.60;;
64799;SDS011;51233;51.982;4.594;2023-04-24T07:09:15;3.37;;;1.20;;
64799;SDS011;51233;51.982;4.594;2023-04-24T07:12:18;8.48;;;2.17;;
64799;SDS011;51233;51.982;4.594;2023-04-24T07:15:20;6.35;;;2.03;;
64799;SDS011;51233;51.982;4.594;2023-04-24T07:18:20;1.00;;;0.70;;
64799;SDS011;51233;51.982;4.594;2023-04-24T07:21:21;8.50;;;2.17;;
64799;SDS011;51233;51.982;4.594;2023-04-24T07:24:21;1.33;;;0.73;;
64799;SDS011;51233;51.982;4.594;2023-04-24T07:27:22;7.75;;;1.58;;
64799;SDS011;51233;51.982;4.594;2023-04-24T07:30:22;0.52;;;0.50;;
64799;SDS011;51233;51.982;4.594;2023-04-24T07:33:26;8.90;;;1.97;;
64799;SDS011;51233;51.982;4.594;2023-04-24T07:36:26;3.42;;;1.20;;
64799;SDS011;51233;51.982;4.594;2023-04-24T07:39:26;8.00;;;2.00;;
64799;SDS011;51233;51.982;4.594;2023-04-24T07:42:27;7.20;;;1.80;;
64799;SDS011;51233;51.982;4.594;2023-04-24T07:45:27;8.53;;;1.90;;
64799;SDS011;51233;51.982;4.594;2023-04-24T07:48:28;7.00;;;1.85;;
64799;SDS011;51233;51.982;4.594;2023-04-24T07:51:28;4.20;;;1.48;;
64799;SDS011;51233;51.982;4.594;2023-04-24T07:54:28;7.53;;;1.90;;
64799;SDS011;51233;51.982;4.594;2023-04-24T07:57:29;8.13;;;2.20;;
64799;SDS011;51233;51.982;4.594;2023-04-24T08:00:29;7.10;;;2.33;;
64799;SDS011;51233;51.982;4.594;2023-04-24T08:03:32;13.70;;;2.58;;
64799;SDS011;51233;51.982;4.594;2023-04-24T08:06:32;3.40;;;1.30;;
64799;SDS011;51233;51.982;4.594;2023-04-24T08:09:33;7.80;;;1.93;;
64799;SDS011;51233;51.982;4.594;2023-04-24T08:12:33;6.83;;;1.77;;
64799;SDS011;51233;51.982;4.594;2023-04-24T08:15:33;2.97;;;1.23;;
64799;SDS011;51233;51.982;4.594;2023-04-24T08:18:34;0.97;;;0.80;;
64799;SDS011;51233;51.982;4.594;2023-04-24T08:21:35;6.22;;;2.20;;
64799;SDS011;51233;51.982;4.594;2023-04-24T08:24:36;4.80;;;1.73;;
64799;SDS011;51233;51.982;4.594;2023-04-24T08:27:36;5.97;;;1.77;;
64799;SDS011;51233;51.982;4.594;2023-04-24T08:30:36;5.43;;;1.90;;
64799;SDS011;51233;51.982;4.594;2023-04-24T08:33:38;3.22;;;1.33;;
64799;SDS011;51233;51.982;4.594;2023-04-24T08:36:38;3.40;;;1.17;;
64799;SDS011;51233;51.982;4.594;2023-04-24T08:39:40;7.47;;;1.73;;
64799;SDS011;51233;51.982;4.594;2023-04-24T08:42:44;3.75;;;1.40;;
64799;SDS011;51233;51.982;4.594;2023-04-24T08:45:44;2.28;;;0.95;;
64799;SDS011;51233;51.982;4.594;2023-04-24T08:48:44;4.87;;;1.70;;
64799;SDS011;51233;51.982;4.594;2023-04-24T08:51:45;5.10;;;1.63;;
64799;SDS011;51233;51.982;4.594;2023-04-24T08:54:47;7.68;;;1.90;;
64799;SDS011;51233;51.982;4.594;2023-04-24T08:57:51;4.03;;;1.40;;
64799;SDS011;51233;51.982;4.594;2023-04-24T09:00:55;3.28;;;1.38;;
64799;SDS011;51233;51.982;4.594;2023-04-24T09:03:56;2.90;;;1.08;;
64799;SDS011;51233;51.982;4.594;2023-04-24T09:07:00;2.67;;;0.95;;
64799;SDS011;51233;51.982;4.594;2023-04-24T09:10:01;5.20;;;1.55;;
64799;SDS011;51233;51.982;4.594;2023-04-24T09:13:01;2.50;;;1.00;;
64799;SDS011;51233;51.982;4.594;2023-04-24T09:16:03;6.60;;;1.13;;
64799;SDS011;51233;51.982;4.594;2023-04-24T09:19:03;6.45;;;1.20;;
64799;SDS011;51233;51.982;4.594;2023-04-24T09:22:09;3.73;;;1.17;;
64799;SDS011;51233;51.982;4.594;2023-04-24T09:25:10;6.30;;;1.10;;
64799;SDS011;51233;51.982;4.594;2023-04-24T09:28:12;2.05;;;0.98;;
64799;SDS011;51233;51.982;4.594;2023-04-24T09:31:17;3.63;;;0.90;;
64799;SDS011;51233;51.982;4.594;2023-04-24T09:34:21;1.02;;;0.55;;
64799;SDS011;51233;51.982;4.594;2023-04-24T09:37:28;2.67;;;1.10;;
64799;SDS011;51233;51.982;4.594;2023-04-24T09:40:29;4.20;;;1.30;;
64799;SDS011;51233;51.982;4.594;2023-04-24T09:43:29;9.37;;;1.30;;
64799;SDS011;51233;51.982;4.594;2023-04-24T09:46:30;5.85;;;1.13;;
64799;SDS011;51233;51.982;4.594;2023-04-24T09:49:34;4.95;;;1.20;;
64799;SDS011;51233;51.982;4.594;2023-04-24T09:52:35;2.22;;;0.70;;
64799;SDS011;51233;51.982;4.594;2023-04-24T09:55:42;5.35;;;1.38;;
64799;SDS011;51233;51.982;4.594;2023-04-24T09:58:44;2.33;;;0.90;;
64799;SDS011;51233;51.982;4.594;2023-04-24T10:01:46;4.00;;;0.88;;
64799;SDS011;51233;51.982;4.594;2023-04-24T10:04:55;8.32;;;0.90;;
64799;SDS011;51233;51.982;4.594;2023-04-24T10:08:00;2.65;;;0.80;;
64799;SDS011;51233;51.982;4.594;2023-04-24T10:11:01;4.32;;;0.95;;
64799;SDS011;51233;51.982;4.594;2023-04-24T10:14:01;1.03;;;0.53;;
64799;SDS011;51233;51.982;4.594;2023-04-24T10:17:01;3.03;;;1.23;;
64799;SDS011;51233;51.982;4.594;2023-04-24T10:20:02;5.27;;;1.10;;
64799;SDS011;51233;51.982;4.594;2023-04-24T10:23:02;1.23;;;0.30;;
64799;SDS011;51233;51.982;4.594;2023-04-24T10:26:03;0.77;;;0.60;;
64799;SDS011;51233;51.982;4.594;2023-04-24T10:29:13;4.05;;;0.93;;
64799;SDS011;51233;51.982;4.594;2023-04-24T10:32:15;1.85;;;0.55;;
64799;SDS011;51233;51.982;4.594;2023-04-24T10:35:15;1.40;;;0.30;;
64799;SDS011;51233;51.982;4.594;2023-04-24T10:38:18;0.45;;;0.45;;
64799;SDS011;51233;51.982;4.594;2023-04-24T10:41:21;1.35;;;0.70;;
64799;SDS011;51233;51.982;4.594;2023-04-24T10:44:25;2.22;;;0.95;;
64799;SDS011;51233;51.982;4.594;2023-04-24T10:47:41;4.05;;;1.10;;
64799;SDS011;51233;51.982;4.594;2023-04-24T10:50:43;10.18;;;1.80;;
64799;SDS011;51233;51.982;4.594;2023-04-24T10:53:43;5.18;;;1.70;;
64799;SDS011;51233;51.982;4.594;2023-04-24T10:56:44;3.92;;;1.00;;
64799;SDS011;51233;51.982;4.594;2023-04-24T10:59:44;3.58;;;1.10;;
64799;SDS011;51233;51.982;4.594;2023-04-24T11:02:45;3.20;;;1.27;;
64799;SDS011;51233;51.982;4.594;2023-04-24T11:05:55;5.05;;;0.90;;
64799;SDS011;51233;51.982;4.594;2023-04-24T11:08:58;5.65;;;1.13;;
64799;SDS011;51233;51.982;4.594;2023-04-24T11:12:05;4.88;;;1.55;;
64799;SDS011;51233;51.982;4.594;2023-04-24T11:15:10;3.17;;;0.98;;
64799;SDS011;51233;51.982;4.594;2023-04-24T11:18:14;2.35;;;0.80;;
64799;SDS011;51233;51.982;4.594;2023-04-24T11:21:18;1.23;;;0.45;;
64799;SDS011;51233;51.982;4.594;2023-04-24T11:24:26;2.17;;;0.70;;
64799;SDS011;51233;51.982;4.594;2023-04-24T11:27:26;2.92;;;0.70;;
64799;SDS011;51233;51.982;4.594;2023-04-24T11:30:30;1.65;;;0.68;;
64799;SDS011;51233;51.982;4.594;2023-04-24T11:33:30;1.60;;;0.60;;
64799;SDS011;51233;51.982;4.594;2023-04-24T11:36:31;1.67;;;0.73;;
64799;SDS011;51233;51.982;4.594;2023-04-24T11:39:36;5.82;;;1.02;;
64799;SDS011;51233;51.982;4.594;2023-04-24T11:42:36;3.05;;;1.05;;
64799;SDS011;51233;51.982;4.594;2023-04-24T11:45:37;0.47;;;0.22;;
64799;SDS011;51233;51.982;4.594;2023-04-24T11:48:37;3.90;;;0.80;;
64799;SDS011;51233;51.982;4.594;2023-04-24T11:51:40;5.72;;;0.90;;
64799;SDS011;51233;51.982;4.594;2023-04-24T11:54:46;5.97;;;1.25;;
64799;SDS011;51233;51.982;4.594;2023-04-24T11:57:47;6.15;;;1.20;;
64799;SDS011;51233;51.982;4.594;2023-04-24T12:00:54;3.35;;;1.00;;
64799;SDS011;51233;51.982;4.594;2023-04-24T12:03:59;3.45;;;1.33;;
64799;SDS011;51233;51.982;4.594;2023-04-24T12:07:00;5.47;;;1.58;;
64799;SDS011;51233;51.982;4.594;2023-04-24T12:10:00;1.02;;;0.63;;
64799;SDS011;51233;51.982;4.594;2023-04-24T12:13:01;7.35;;;1.80;;
64799;SDS011;51233;51.982;4.594;2023-04-24T12:16:02;14.70;;;2.03;;
64799;SDS011;51233;51.982;4.594;2023-04-24T12:19:03;4.63;;;1.35;;
64799;SDS011;51233;51.982;4.594;2023-04-24T12:22:04;5.20;;;1.38;;
64799;SDS011;51233;51.982;4.594;2023-04-24T12:25:09;3.33;;;1.45;;
64799;SDS011;51233;51.982;4.594;2023-04-24T12:28:11;4.22;;;1.42;;
64799;SDS011;51233;51.982;4.594;2023-04-24T12:31:11;3.13;;;1.23;;
64799;SDS011;51233;51.982;4.594;2023-04-24T12:34:18;5.63;;;2.00;;
64799;SDS011;51233;51.982;4.594;2023-04-24T12:37:18;6.18;;;1.30;;
64799;SDS011;51233;51.982;4.594;2023-04-24T12:40:20;7.50;;;1.70;;
64799;SDS011;51233;51.982;4.594;2023-04-24T12:43:20;3.03;;;0.98;;
64799;SDS011;51233;51.982;4.594;2023-04-24T12:46:21;9.10;;;2.53;;
64799;SDS011;51233;51.982;4.594;2023-04-24T12:49:21;4.50;;;1.55;;
64799;SDS011;51233;51.982;4.594;2023-04-24T12:52:22;6.78;;;2.30;;
64799;SDS011;51233;51.982;4.594;2023-04-24T12:55:23;4.70;;;1.55;;
64799;SDS011;51233;51.982;4.594;2023-04-24T12:58:30;5.55;;;1.10;;
64799;SDS011;51233;51.982;4.594;2023-04-24T13:01:30;5.35;;;1.50;;
64799;SDS011;51233;51.982;4.594;2023-04-24T13:04:30;16.87;;;2.97;;
64799;SDS011;51233;51.982;4.594;2023-04-24T13:07:30;10.57;;;2.53;;
64799;SDS011;51233;51.982;4.594;2023-04-24T13:10:31;11.63;;;2.15;;
64799;SDS011;51233;51.982;4.594;2023-04-24T13:13:31;9.47;;;2.27;;
64799;SDS011;51233;51.982;4.594;2023-04-24T13:16:31;10.65;;;2.70;;
64799;SDS011;51233;51.982;4.594;2023-04-24T13:19:35;8.23;;;3.00;;
64799;SDS011;51233;51.982;4.594;2023-04-24T13:22:35;4.40;;;1.70;;
64799;SDS011;51233;51.982;4.594;2023-04-24T13:25:36;14.90;;;3.13;;
64799;SDS011;51233;51.982;4.594;2023-04-24T13:28:37;7.88;;;2.53;;
64799;SDS011;51233;51.982;4.594;2023-04-24T13:31:38;6.13;;;1.90;;
64799;SDS011;51233;51.982;4.594;2023-04-24T13:34:38;8.03;;;1.70;;
64799;SDS011;51233;51.982;4.594;2023-04-24T13:37:38;5.70;;;2.17;;
64799;SDS011;51233;51.982;4.594;2023-04-24T13:40:38;10.13;;;2.60;;
64799;SDS011;51233;51.982;4.594;2023-04-24T13:43:39;7.43;;;1.57;;
64799;SDS011;51233;51.982;4.594;2023-04-24T13:46:42;8.13;;;2.33;;
64799;SDS011;51233;51.982;4.594;2023-04-24T13:52:43;5.07;;;1.40;;
64799;SDS011;51233;51.982;4.594;2023-04-24T13:55:43;5.40;;;2.00;;
64799;SDS011;51233;51.982;4.594;2023-04-24T13:58:43;8.05;;;2.03;;
64799;SDS011;51233;51.982;4.594;2023-04-24T14:01:44;8.27;;;1.90;;
64799;SDS011;51233;51.982;4.594;2023-04-24T14:04:45;7.43;;;2.53;;
64799;SDS011;51233;51.982;4.594;2023-04-24T14:07:45;8.38;;;2.42;;
64799;SDS011;51233;51.982;4.594;2023-04-24T14:10:45;6.07;;;2.03;;
64799;SDS011;51233;51.982;4.594;2023-04-24T14:13:45;8.30;;;2.50;;
64799;SDS011;51233;51.982;4.594;2023-04-24T14:16:45;7.78;;;2.70;;
64799;SDS011;51233;51.982;4.594;2023-04-24T14:19:46;4.32;;;1.73;;
64799;SDS011;51233;51.982;4.594;2023-04-24T14:22:46;3.67;;;1.30;;
64799;SDS011;51233;51.982;4.594;2023-04-24T14:25:46;9.30;;;2.88;;
64799;SDS011;51233;51.982;4.594;2023-04-24T14:28:50;5.80;;;2.25;;
64799;SDS011;51233;51.982;4.594;2023-04-24T14:31:50;8.05;;;2.42;;
64799;SDS011;51233;51.982;4.594;2023-04-24T14:34:51;11.27;;;2.27;;
64799;SDS011;51233;51.982;4.594;2023-04-24T14:37:51;6.93;;;2.30;;
64799;SDS011;51233;51.982;4.594;2023-04-24T14:40:51;7.90;;;2.88;;
64799;SDS011;51233;51.982;4.594;2023-04-24T14:43:51;7.55;;;2.20;;
64799;SDS011;51233;51.982;4.594;2023-04-24T14:46:52;8.23;;;2.97;;
64799;SDS011;51233;51.982;4.594;2023-04-24T14:49:52;7.70;;;1.80;;
64799;SDS011;51233;51.982;4.594;2023-04-24T14:52:55;8.20;;;2.25;;
64799;SDS011;51233;51.982;4.594;2023-04-24T14:55:58;7.10;;;2.20;;
64799;SDS011;51233;51.982;4.594;2023-04-24T14:58:59;5.87;;;2.10;;
64799;SDS011;51233;51.982;4.594;2023-04-24T15:01:59;6.07;;;1.77;;
64799;SDS011;51233;51.982;4.594;2023-04-24T15:04:59;8.55;;;2.45;;
64799;SDS011;51233;51.982;4.594;2023-04-24T15:07:59;7.35;;;2.83;;
64799;SDS011;51233;51.982;4.594;2023-04-24T15:10:59;12.00;;;2.93;;
64799;SDS011;51233;51.982;4.594;2023-04-24T15:14:00;6.97;;;2.80;;
64799;SDS011;51233;51.982;4.594;2023-04-24T15:17:00;5.38;;;1.80;;
64799;SDS011;51233;51.982;4.594;2023-04-24T15:20:00;10.40;;;2.50;;
64799;SDS011;51233;51.982;4.594;2023-04-24T15:23:00;5.07;;;1.97;;
64799;SDS011;51233;51.982;4.594;2023-04-24T15:26:02;3.60;;;1.70;;
64799;SDS011;51233;51.982;4.594;2023-04-24T15:29:02;5.90;;;2.08;;
64799;SDS011;51233;51.982;4.594;2023-04-24T15:32:02;11.03;;;2.07;;
64799;SDS011;51233;51.982;4.594;2023-04-24T15:35:02;10.50;;;2.93;;
64799;SDS011;51233;51.982;4.594;2023-04-24T15:38:03;5.40;;;2.10;;
64799;SDS011;51233;51.982;4.594;2023-04-24T15:41:04;8.00;;;2.90;;
64799;SDS011;51233;51.982;4.594;2023-04-24T15:44:04;6.17;;;2.27;;
64799;SDS011;51233;51.982;4.594;2023-04-24T15:47:05;10.07;;;2.57;;
64799;SDS011;51233;51.982;4.594;2023-04-24T15:50:05;8.50;;;2.57;;
64799;SDS011;51233;51.982;4.594;2023-04-24T15:53:08;8.52;;;2.92;;
64799;SDS011;51233;51.982;4.594;2023-04-24T15:56:08;18.53;;;3.97;;
64799;SDS011;51233;51.982;4.594;2023-04-24T15:59:08;3.97;;;1.83;;
64799;SDS011;51233;51.982;4.594;2023-04-24T16:02:09;8.38;;;2.22;;
64799;SDS011;51233;51.982;4.594;2023-04-24T16:05:10;3.45;;;1.58;;
64799;SDS011;51233;51.982;4.594;2023-04-24T16:08:10;7.00;;;2.42;;
64799;SDS011;51233;51.982;4.594;2023-04-24T16:11:14;6.07;;;2.35;;
64799;SDS011;51233;51.982;4.594;2023-04-24T16:14:14;11.90;;;2.83;;
64799;SDS011;51233;51.982;4.594;2023-04-24T16:17:14;6.18;;;2.40;;
64799;SDS011;51233;51.982;4.594;2023-04-24T16:20:14;4.93;;;2.20;;
64799;SDS011;51233;51.982;4.594;2023-04-24T16:23:15;8.27;;;2.40;;
64799;SDS011;51233;51.982;4.594;2023-04-24T16:26:15;4.67;;;2.10;;
64799;SDS011;51233;51.982;4.594;2023-04-24T16:29:15;5.97;;;1.90;;
64799;SDS011;51233;51.982;4.594;2023-04-24T16:32:16;3.40;;;1.77;;
64799;SDS011;51233;51.982;4.594;2023-04-24T16:35:18;8.83;;;2.10;;
64799;SDS011;51233;51.982;4.594;2023-04-24T16:38:18;5.63;;;2.50;;
64799;SDS011;51233;51.982;4.594;2023-04-24T16:41:18;9.30;;;2.90;;
64799;SDS011;51233;51.982;4.594;2023-04-24T16:44:19;10.43;;;2.13;;
64799;SDS011;51233;51.982;4.594;2023-04-24T16:47:19;6.00;;;1.57;;
64799;SDS011;51233;51.982;4.594;2023-04-24T16:50:20;7.47;;;2.50;;
64799;SDS011;51233;51.982;4.594;2023-04-24T16:53:20;8.93;;;2.73;;
64799;SDS011;51233;51.982;4.594;2023-04-24T16:56:20;9.13;;;2.40;;
64799;SDS011;51233;51.982;4.594;2023-04-24T16:59:21;13.90;;;3.03;;
64799;SDS011;51233;51.982;4.594;2023-04-24T17:02:22;13.35;;;2.45;;
64799;SDS011;51233;51.982;4.594;2023-04-24T17:05:22;4.73;;;1.57;;
64799;SDS011;51233;51.982;4.594;2023-04-24T17:08:23;11.47;;;3.10;;
64799;SDS011;51233;51.982;4.594;2023-04-24T17:11:23;7.87;;;2.63;;
64799;SDS011;51233;51.982;4.594;2023-04-24T17:14:23;4.53;;;2.27;;
64799;SDS011;51233;51.982;4.594;2023-04-24T17:20:25;10.25;;;2.40;;
64799;SDS011;51233;51.982;4.594;2023-04-24T17:23:25;6.97;;;2.00;;
64799;SDS011;51233;51.982;4.594;2023-04-24T17:26:31;10.00;;;2.72;;
64799;SDS011;51233;51.982;4.594;2023-04-24T17:29:31;4.75;;;1.88;;
64799;SDS011;51233;51.982;4.594;2023-04-24T17:32:32;9.20;;;3.17;;
64799;SDS011;51233;51.982;4.594;2023-04-24T17:35:32;10.88;;;3.13;;
64799;SDS011;51233;51.982;4.594;2023-04-24T17:38:32;7.17;;;2.47;;
64799;SDS011;51233;51.982;4.594;2023-04-24T17:41:32;4.53;;;2.10;;
64799;SDS011;51233;51.982;4.594;2023-04-24T17:44:32;10.83;;;2.90;;
64799;SDS011;51233;51.982;4.594;2023-04-24T17:47:33;12.90;;;3.00;;
64799;SDS011;51233;51.982;4.594;2023-04-24T17:50:33;7.93;;;2.17;;
64799;SDS011;51233;51.982;4.594;2023-04-24T17:53:34;8.07;;;2.37;;
64799;SDS011;51233;51.982;4.594;2023-04-24T17:56:34;5.90;;;2.13;;
64799;SDS011;51233;51.982;4.594;2023-04-24T17:59:34;6.43;;;2.17;;
64799;SDS011;51233;51.982;4.594;2023-04-24T18:02:34;2.25;;;0.93;;
64799;SDS011;51233;51.982;4.594;2023-04-24T18:05:36;5.00;;;1.97;;
64799;SDS011;51233;51.982;4.594;2023-04-24T18:08:36;4.07;;;1.27;;
64799;SDS011;51233;51.982;4.594;2023-04-24T18:11:36;8.30;;;2.63;;
64799;SDS011;51233;51.982;4.594;2023-04-24T18:14:36;5.13;;;2.00;;